Relevés horaires Beauvechain (Belgique)


Relevés horaires à Beauvechain - Dimanche 09 Juill. 2017
Heure UTC1 Température [°C] Vent [km/h] Hum. [%] Pres.4 [hPa] Visi. [Km] Nébu. [octa] Préc.5 [mm] Cond.
2m. Res. Ros. Dir.2 Vit. Moy. Raf.3
23:00 17.5 17.5 11.1 NNO 1.9 -- 3.7 66 1010.6(-0.8/3h) 20 -- -- --
22:00 18.3 18.3 9.6 NNO 1.9 -- 5.6 57 1010.7(-0.4/3h) 20 -- -- --
21:00 18.5 18.5 10.9 NNO 1.9 -- 7.4 61 1011.5(0.4/3h) 20 -- -- --
20:00 19.3 19.3 11.8 N 3.7 -- 7.4 62 1011.3(-0.1/3h) 20 -- -- --
19:00 21.0 21.0 11.5 N 3.7 -- 7.4 55 1011(-0.8/3h) 20 -- -- --
18:00 22.7 22.7 10.1 N 5.6 -- 13.0 45 1010.8(-1.7/3h) 20 -- -- --
17:00 23.1 23.1 9.6 N 5.6 -- 9.3 42 1011.2(-1.7/3h) 20 -- -- --
16:00 23.7 23.7 9.4 N 3.7 -- 7.4 40 1011.7(-2.0/3h) 20 -- -- --
15:00 24.0 24.0 9.6 NNE 3.7 -- 13.0 40 1012.6(-1.4/3h) 20 -- -- --
14:00 23.7 23.7 9.6 NNO 1.9 -- 9.3 41 1013.1(-1.4/3h) 20 -- -- --
13:00 23.2 23.2 10.1 N 3.7 -- 13.0 43 1013.7(-1.1/3h) 20 -- -- --
12:00 23.1 23.1 9.3 NNE 3.7 -- 9.3 41 1014.1(-1.3/3h) 20 -- -- --
11:00 22.1 22.1 9.2 ENE 3.7 -- 9.3 44 1014.7(-0.9/3h) 20 -- -- --
10:00 21.4 21.4 10.0 NE 3.7 -- 7.4 48 1015.1(-0.5/3h) 20 -- -- --
09:00 19.7 19.7 9.0 NNO 1.9 -- 9.3 50 1015.7(0.0/3h) 20 -- -- --
08:00 19.1 19.1 9.5 NE 3.7 -- 9.3 54 1015.7(0.1/3h) 20 -- -- --
07:00 17.7 17.7 12.0 NE 5.6 -- 7.4 69 1015.7(-0.1/3h) 20 -- -- --
06:00 15.7 15.7 13.9 E 3.7 -- 5.6 89 1015.8(-0.3/3h) 14 -- -- --
05:00 14.3 14.3 13.2 NNO 1.9 -- 3.7 93 1016.1(-0.8/3h) 6 -- -- --
04:00 13.6 13.6 12.7 NNO 1.9 -- 3.7 94 1016.2(-1.2/3h) 8 -- -- --
03:00 13.3 13.3 12.4 NNO 1.9 -- 5.6 94 1016.5(-1.0/3h) 9 -- -- --
02:00 14.0 14.0 12.6 NNO 3.7 -- 3.7 91 1017(-1.1/3h) 14 -- -- --
01:00 14.6 14.6 12.9 NNO 1.9 -- 3.7 90 1017.2(-0.5/3h) 19 -- -- --
00:00 15.1 15.1 13.3 N 3.7 -- 13.0 89 1017.3(-0.4/3h) 20 -- -- --

1 Coordinated Universal Time. Actuellement il est 03:00 locale et 02:00 UTC.

2 Le vent souffle depuis la direction indiquée vers la direction oposée.

3 Les rafales max. sont disponible 40 min après l'heure du relevé.

4 Pour les stations d'altitude (plus de 600m) le géopotentiel du niveau le plus proche de la pression obligatoire est indiqué.

5 Les stations disposant d'un diffuseur peuvent indiquer "trace". Cela signifie que des précipitations ont touchés le sol mais que la quantité est inférieure à 0.1 mm.

Récapitulatif de la journée
Température [°C] Vent [km/h] Ensoleillement4 [h] Precipitations totale5 [mm] Pression [Hpa]
Min1 Max.2 Moy.3 Max. Min Max.
13.1 24.6 0 13.0 0 h 0 min 0 1010.6 1017.3

1 Température minimale relevée entre 18:00 UTC la veille et 18:00 UTC le jour donné.

2 Température maximale relevée entre 06:00 UTC le jour donné et 06:00 UTC le lendemain.

3 Vent moyen de la journée basé sur les relevés horaires.

4 Ensoleillement en heures relevé entre 06:00 UTC la veille et 06:00 UTC le jour donné.

5 Précipitations totales tombées entre 06:00 UTC la jour donné et 06:00 UTC le lendemain.

Graphiques horaires